Ash Flat, Arkansas
Current Conditions -  °F | °C
As of 10:15 AM on Friday 21 Nov 2014 (Local Time) from KBVX Reporting Station
Overcast Overcast  
Wind Chill: 32°   Ceiling: 1400
Heat Index: 39°   Visibility: 4mi
Dew Point: 36°   Wind: 10mph
Humidity: 87%   Direction: 80°E
Pressure: 30.35"   Gusts: NA
Location:  36.22°N, 91.61°W
Report Text: KBVX 211615Z AUTO 08009KT 4SM OVC014 04/02 A3035 RMK AO1
Loading
Personal Weather Stations






























Interactive Weather Map New forecast layout! Learn more

10-Day Weather Forecast

Advertisements
Track Severe Weather on mobile